Time;durP1;ratioP1;P1;durP2;ratioP2;P2;SDS_P1;SDS_P2;PMS_P1;PMS_P2;Temp;Humidity;BMP_temperature;BMP_pressure;BME280_temperature;BME280_humidity;BME280_pressure;Samples;Min_cycle;Max_cycle;Signal;HPM_P1;HPM_P2
2022/05/28 00:00:33;;;;;;;;;;;;;;;7.33;100.00;100663.34;5050852;28;19943;-83
2022/05/28 00:03:08;;;;;;;;;;;;;;;7.24;100.00;100656.78;5052079;28;19924;-80
2022/05/28 00:05:36;;;;;;;;;;;;;;;7.23;100.00;100661.38;5046111;28;19928;-84
2022/05/28 00:08:09;;;;;;;;;;;;;;;7.14;100.00;100638.59;5056483;28;20381;-81
2022/05/28 00:10:37;;;;;;;;;;;;;;;7.15;100.00;100635.63;5051982;28;19927;-80
2022/05/28 00:13:10;;;;;;;;;;;;;;;7.12;100.00;100628.00;5068691;28;19927;-81
2022/05/28 00:15:43;;;;;;;;;;;;;;;7.12;100.00;100624.47;5046643;28;19929;-82
2022/05/28 00:18:17;;;;;;;;;;;;;;;7.07;100.00;100630.69;5045775;28;19931;-80
2022/05/28 00:20:46;;;;;;;;;;;;;;;7.06;100.00;100639.06;5049004;28;19932;-79
2022/05/28 00:23:18;;;;;;;;;;;;;;;7.13;100.00;100629.63;5055940;28;20376;-81
2022/05/28 00:25:52;;;;;;;;;;;;;;;7.13;100.00;100640.44;5046498;28;19925;-82
2022/05/28 00:28:25;;;;;;;;;;;;;;;7.22;100.00;100643.53;5042025;28;20645;-79
2022/05/28 00:30:57;;;;;;;;;;;;;;;7.22;100.00;100640.81;5028687;28;19921;-83
2022/05/28 00:33:27;;;;;;;;;;;;;;;7.29;100.00;100627.03;5073085;28;19925;-82
2022/05/28 00:36:00;;;;;;;;;;;;;;;7.25;100.00;100634.88;5055518;28;20386;-84
2022/05/28 00:38:28;;;;;;;;;;;;;;;7.33;100.00;100647.09;5051238;28;19936;-82
2022/05/28 00:41:02;;;;;;;;;;;;;;;7.27;100.00;100648.16;5037860;28;19921;-82
2022/05/28 00:43:35;;;;;;;;;;;;;;;7.23;100.00;100650.53;5055841;28;20483;-81
2022/05/28 00:46:06;;;;;;;;;;;;;;;7.15;100.00;100668.09;5049325;28;19947;-82
2022/05/28 00:48:46;;;;;;;;;;;;;;;7.20;100.00;100666.50;5024076;28;20362;-83
2022/05/28 00:51:16;;;;;;;;;;;;;;;7.22;100.00;100667.06;5032963;28;19932;-87
2022/05/28 00:53:44;;;;;;;;;;;;;;;7.19;100.00;100670.28;5045442;28;19925;-83
2022/05/28 00:56:17;;;;;;;;;;;;;;;7.15;100.00;100659.97;5052788;28;19935;-81
2022/05/28 00:58:50;;;;;;;;;;;;;;;7.11;100.00;100663.44;5034049;28;19931;-81
2022/05/28 01:01:26;;;;;;;;;;;;;;;7.08;100.00;100664.75;5030019;28;20393;-84
2022/05/28 01:04:00;;;;;;;;;;;;;;;7.05;100.00;100657.16;5053584;28;19931;-81
2022/05/28 01:06:30;;;;;;;;;;;;;;;7.03;100.00;100643.09;5032653;28;19928;-81
2022/05/28 01:09:07;;;;;;;;;;;;;;;7.03;100.00;100656.63;5033956;28;19932;-85
2022/05/28 01:11:37;;;;;;;;;;;;;;;6.94;100.00;100653.53;5044222;28;19928;-82
2022/05/28 01:14:13;;;;;;;;;;;;;;;6.93;100.00;100646.50;5048703;28;19931;-82
2022/05/28 01:16:43;;;;;;;;;;;;;;;6.84;100.00;100644.53;5047675;28;19921;-78
2022/05/28 01:19:24;;;;;;;;;;;;;;;6.88;100.00;100643.75;5035009;28;19921;-82
2022/05/28 01:22:04;;;;;;;;;;;;;;;6.92;100.00;100641.38;5017405;28;19921;-79
2022/05/28 01:24:38;;;;;;;;;;;;;;;6.94;100.00;100645.41;5068079;28;20600;-82
2022/05/28 01:27:10;;;;;;;;;;;;;;;6.86;100.00;100629.66;5051697;28;19921;-82
2022/05/28 01:29:40;;;;;;;;;;;;;;;6.92;100.00;100636.75;5056195;28;19928;-82
2022/05/28 01:32:14;;;;;;;;;;;;;;;6.90;100.00;100638.09;5033403;28;19928;-82
2022/05/28 01:34:47;;;;;;;;;;;;;;;6.81;100.00;100629.63;5044326;28;20293;-81
2022/05/28 01:37:16;;;;;;;;;;;;;;;6.93;100.00;100635.69;5051989;28;19921;-82
2022/05/28 01:39:51;;;;;;;;;;;;;;;6.96;100.00;100642.44;5053005;28;20004;-82
2022/05/28 01:42:27;;;;;;;;;;;;;;;6.95;100.00;100636.25;5052075;28;19935;-81
2022/05/28 01:45:01;;;;;;;;;;;;;;;6.85;100.00;100621.78;5036302;28;19921;-81
2022/05/28 01:47:35;;;;;;;;;;;;;;;6.78;100.00;100608.47;5028312;28;19955;-83
2022/05/28 01:50:06;;;;;;;;;;;;;;;6.77;100.00;100609.56;5047585;28;19931;-80
2022/05/28 01:52:40;;;;;;;;;;;;;;;6.77;100.00;100610.38;5027851;28;19931;-82
2022/05/28 01:55:14;;;;;;;;;;;;;;;6.65;100.00;100601.59;5031044;28;20401;-81
2022/05/28 01:57:48;;;;;;;;;;;;;;;6.61;100.00;100603.19;5026596;28;19925;-81
2022/05/28 02:00:21;;;;;;;;;;;;;;;6.62;100.00;100600.22;5024555;28;19931;-81
2022/05/28 02:02:50;;;;;;;;;;;;;;;6.60;100.00;100593.44;5047037;28;19931;-82
2022/05/28 02:05:18;;;;;;;;;;;;;;;6.54;100.00;100599.88;5044735;28;19931;-80
2022/05/28 02:07:46;;;;;;;;;;;;;;;6.59;100.00;100602.63;5032089;28;19948;-81
2022/05/28 02:10:21;;;;;;;;;;;;;;;6.63;100.00;100601.06;5039215;28;20373;-81
2022/05/28 02:12:54;;;;;;;;;;;;;;;6.69;100.00;100599.22;5051293;28;19928;-81
2022/05/28 02:15:28;;;;;;;;;;;;;;;6.66;100.00;100586.19;5044241;28;19929;-83
2022/05/28 02:18:00;;;;;;;;;;;;;;;6.68;100.00;100598.38;5045299;28;19921;-82
2022/05/28 02:20:37;;;;;;;;;;;;;;;6.58;100.00;100601.81;5047333;28;19924;-81
2022/05/28 02:23:11;;;;;;;;;;;;;;;6.63;100.00;100598.34;5048110;28;19925;-81
2022/05/28 02:25:44;;;;;;;;;;;;;;;6.67;100.00;100617.56;5044790;28;19920;-84
2022/05/28 02:28:15;;;;;;;;;;;;;;;6.70;100.00;100595.41;5035419;28;19932;-81
2022/05/28 02:30:48;;;;;;;;;;;;;;;6.61;100.00;100584.25;5025409;28;20369;-83
2022/05/28 02:33:16;;;;;;;;;;;;;;;6.59;100.00;100591.81;5044445;28;20325;-81
2022/05/28 02:35:49;;;;;;;;;;;;;;;6.61;100.00;100587.75;5031874;28;19927;-84
2022/05/28 02:38:18;;;;;;;;;;;;;;;6.57;100.00;100592.06;5063794;28;20003;-80
2022/05/28 02:40:46;;;;;;;;;;;;;;;6.59;100.00;100589.13;5060867;28;19921;-82
2022/05/28 02:43:20;;;;;;;;;;;;;;;6.47;100.00;100587.34;5057467;28;19921;-82
2022/05/28 02:45:53;;;;;;;;;;;;;;;6.50;100.00;100590.63;5047889;28;19925;-83
2022/05/28 02:48:26;;;;;;;;;;;;;;;6.49;100.00;100589.84;5052012;28;19928;-83
2022/05/28 02:50:54;;;;;;;;;;;;;;;6.50;100.00;100580.63;5062988;28;19921;-82
2022/05/28 02:53:26;;;;;;;;;;;;;;;6.42;100.00;100589.19;5036900;28;19920;-80
2022/05/28 02:55:55;;;;;;;;;;;;;;;6.37;100.00;100584.56;5055025;28;20300;-81
2022/05/28 02:58:29;;;;;;;;;;;;;;;6.47;100.00;100589.25;5060854;28;19920;-85
2022/05/28 03:00:58;;;;;;;;;;;;;;;6.45;100.00;100591.41;5054948;28;19924;-82
2022/05/28 03:03:26;;;;;;;;;;;;;;;6.44;100.00;100595.97;5051431;28;19932;-81
2022/05/28 03:05:55;;;;;;;;;;;;;;;6.46;100.00;100587.63;5051625;28;19920;-82
2022/05/28 03:08:28;;;;;;;;;;;;;;;6.47;100.00;100597.38;5050397;28;19920;-80
2022/05/28 03:10:56;;;;;;;;;;;;;;;6.47;100.00;100595.47;5036007;28;20365;-81
2022/05/28 03:13:30;;;;;;;;;;;;;;;6.51;100.00;100592.28;5048045;28;20408;-81
2022/05/28 03:16:03;;;;;;;;;;;;;;;6.51;100.00;100606.59;5045564;28;19925;-81
2022/05/28 03:18:31;;;;;;;;;;;;;;;6.57;100.00;100602.06;5045609;28;20406;-83
2022/05/28 03:21:05;;;;;;;;;;;;;;;6.60;100.00;100579.91;5047377;28;19925;-83
2022/05/28 03:23:38;;;;;;;;;;;;;;;6.58;100.00;100584.78;5032195;28;19928;-80
2022/05/28 03:26:16;;;;;;;;;;;;;;;6.53;100.00;100587.41;5043053;28;19925;-80
2022/05/28 03:28:51;;;;;;;;;;;;;;;6.51;100.00;100587.66;5037878;28;19932;-80
2022/05/28 03:31:20;;;;;;;;;;;;;;;6.50;100.00;100588.75;5053772;28;19925;-81
2022/05/28 03:33:48;;;;;;;;;;;;;;;6.41;100.00;100588.38;5049334;28;19921;-80
2022/05/28 03:36:16;;;;;;;;;;;;;;;6.49;100.00;100594.41;5030522;28;19935;-80
2022/05/28 03:38:44;;;;;;;;;;;;;;;6.49;100.00;100595.25;5042665;28;20596;-80
2022/05/28 03:41:17;;;;;;;;;;;;;;;6.50;100.00;100599.56;5039731;28;20300;-81
2022/05/28 03:43:51;;;;;;;;;;;;;;;6.61;100.00;100595.06;5047343;28;20588;-81
2022/05/28 03:46:21;;;;;;;;;;;;;;;6.66;100.00;100594.28;5060418;28;19928;-82
2022/05/28 03:48:56;;;;;;;;;;;;;;;6.76;100.00;100595.22;5051043;28;19944;-81
2022/05/28 03:51:30;;;;;;;;;;;;;;;6.75;100.00;100593.59;5035486;28;19928;-83
2022/05/28 03:53:58;;;;;;;;;;;;;;;6.79;100.00;100602.00;5035428;28;19924;-81
2022/05/28 03:56:33;;;;;;;;;;;;;;;6.82;100.00;100604.19;5053338;28;20406;-80
2022/05/28 03:59:08;;;;;;;;;;;;;;;6.79;100.00;100602.00;5036973;28;19932;-83
2022/05/28 04:01:36;;;;;;;;;;;;;;;6.87;100.00;100598.81;5052985;28;19951;-80
2022/05/28 04:04:09;;;;;;;;;;;;;;;6.87;100.00;100595.31;5028527;28;19921;-82
2022/05/28 04:06:42;;;;;;;;;;;;;;;6.89;100.00;100609.38;5045864;28;19925;-82
2022/05/28 04:09:10;;;;;;;;;;;;;;;6.81;100.00;100605.28;5049001;28;19921;-83
2022/05/28 04:11:43;;;;;;;;;;;;;;;6.91;100.00;100602.66;5034522;28;19928;-81
2022/05/28 04:14:12;;;;;;;;;;;;;;;6.85;100.00;100597.44;5056660;28;20381;-81
2022/05/28 04:16:45;;;;;;;;;;;;;;;6.79;100.00;100600.13;5031698;28;19927;-85
2022/05/28 04:19:18;;;;;;;;;;;;;;;6.84;100.00;100595.84;5052215;28;20273;-81
2022/05/28 04:21:51;;;;;;;;;;;;;;;6.91;100.00;100602.66;5031134;28;19931;-80
2022/05/28 04:24:19;;;;;;;;;;;;;;;6.88;100.00;100597.75;5049312;28;19921;-81
2022/05/28 04:26:47;;;;;;;;;;;;;;;6.88;100.00;100605.06;5051445;28;19924;-82
2022/05/28 04:29:16;;;;;;;;;;;;;;;6.96;100.00;100601.88;5049686;28;19940;-80
2022/05/28 04:31:44;;;;;;;;;;;;;;;7.02;100.00;100610.88;5048988;28;19935;-83
2022/05/28 04:34:17;;;;;;;;;;;;;;;7.08;100.00;100615.25;5056675;28;20393;-81
2022/05/28 04:36:50;;;;;;;;;;;;;;;7.09;100.00;100604.16;5027907;28;19927;-82
2022/05/28 04:39:18;;;;;;;;;;;;;;;7.22;100.00;100611.03;5045962;28;19928;-84
2022/05/28 04:41:51;;;;;;;;;;;;;;;7.24;100.00;100613.50;5039230;28;19921;-82
2022/05/28 04:44:21;;;;;;;;;;;;;;;7.33;100.00;100606.50;5043891;28;20290;-83
2022/05/28 04:46:54;;;;;;;;;;;;;;;7.36;100.00;100600.59;5047570;28;19925;-82
2022/05/28 04:49:26;;;;;;;;;;;;;;;7.43;100.00;100603.03;5049706;28;19947;-82
2022/05/28 04:51:59;;;;;;;;;;;;;;;7.47;100.00;100598.72;5042427;28;19925;-81
2022/05/28 04:54:32;;;;;;;;;;;;;;;7.56;100.00;100601.78;5043647;28;19925;-83
2022/05/28 04:57:00;;;;;;;;;;;;;;;7.65;100.00;100597.50;5047507;28;19924;-82
2022/05/28 04:59:30;;;;;;;;;;;;;;;7.58;100.00;100608.59;5047056;28;20305;-81
2022/05/28 05:02:03;;;;;;;;;;;;;;;7.59;100.00;100595.84;5045824;28;19921;-82
2022/05/28 05:04:36;;;;;;;;;;;;;;;7.65;100.00;100619.16;5043684;28;20293;-82
2022/05/28 05:07:09;;;;;;;;;;;;;;;8.60;100.00;100612.78;5027895;28;19925;-84
2022/05/28 05:09:37;;;;;;;;;;;;;;;9.88;100.00;100600.25;5043608;28;19932;-82
2022/05/28 05:12:05;;;;;;;;;;;;;;;11.10;100.00;100608.00;5030816;28;20277;-82
2022/05/28 05:14:35;;;;;;;;;;;;;;;11.82;100.00;100604.59;5056105;28;19929;-83
2022/05/28 05:17:07;;;;;;;;;;;;;;;12.25;100.00;100604.63;5028123;28;19925;-84
2022/05/28 05:19:35;;;;;;;;;;;;;;;12.56;100.00;100606.13;5042282;28;19931;-82
2022/05/28 05:22:08;;;;;;;;;;;;;;;12.27;100.00;100604.34;5040465;28;19925;-82
2022/05/28 05:24:37;;;;;;;;;;;;;;;12.52;100.00;100614.09;5035460;28;19920;-80
2022/05/28 05:27:10;;;;;;;;;;;;;;;10.87;100.00;100612.28;5046330;28;19928;-82
2022/05/28 05:29:45;;;;;;;;;;;;;;;9.72;100.00;100633.97;5029848;28;19925;-81
2022/05/28 05:32:17;;;;;;;;;;;;;;;9.59;100.00;100622.59;5052193;28;19921;-82
2022/05/28 05:34:50;;;;;;;;;;;;;;;9.31;100.00;100618.56;5028604;28;19935;-83
2022/05/28 05:37:23;;;;;;;;;;;;;;;9.01;100.00;100623.72;5049440;28;19999;-82
2022/05/28 05:39:56;;;;;;;;;;;;;;;9.01;100.00;100633.75;5029174;28;20274;-82
2022/05/28 05:42:29;;;;;;;;;;;;;;;8.96;100.00;100642.72;5049198;28;20361;-80
2022/05/28 05:45:04;;;;;;;;;;;;;;;9.36;100.00;100643.00;5037062;28;19921;-82
2022/05/28 05:47:40;;;;;;;;;;;;;;;9.77;100.00;100631.25;5044838;28;20510;-81
2022/05/28 05:50:08;;;;;;;;;;;;;;;9.85;100.00;100630.69;5047927;28;19925;-83
2022/05/28 05:52:41;;;;;;;;;;;;;;;10.15;100.00;100623.50;5038186;28;19925;-85
2022/05/28 05:55:14;;;;;;;;;;;;;;;9.86;100.00;100635.06;5049538;28;19928;-82
2022/05/28 05:57:42;;;;;;;;;;;;;;;9.72;100.00;100639.41;5049242;28;19924;-81
2022/05/28 06:00:17;;;;;;;;;;;;;;;9.63;100.00;100645.41;5031492;28;19928;-80
2022/05/28 06:02:53;;;;;;;;;;;;;;;9.47;100.00;100639.19;5044890;28;19921;-82
2022/05/28 06:05:26;;;;;;;;;;;;;;;9.85;100.00;100642.38;5044109;28;19929;-82
2022/05/28 06:07:59;;;;;;;;;;;;;;;10.11;100.00;100644.19;5045817;28;20293;-81
2022/05/28 06:10:31;;;;;;;;;;;;;;;10.17;100.00;100637.66;5063294;28;19921;-80
2022/05/28 06:12:59;;;;;;;;;;;;;;;10.29;100.00;100645.47;5046564;28;19931;-81
2022/05/28 06:15:29;;;;;;;;;;;;;;;10.35;100.00;100652.56;5024405;28;20008;-80
2022/05/28 06:17:57;;;;;;;;;;;;;;;10.42;100.00;100649.56;5030949;28;20385;-81
2022/05/28 06:20:24;;;;;;;;;;;;;;;10.32;100.00;100648.47;5042913;28;20532;-80
2022/05/28 06:22:57;;;;;;;;;;;;;;;10.28;100.00;100644.69;5028213;28;19921;-79
2022/05/28 06:25:30;;;;;;;;;;;;;;;10.57;100.00;100641.31;5029989;28;20297;-81
2022/05/28 06:27:58;;;;;;;;;;;;;;;10.41;100.00;100640.56;5043850;28;19924;-78
2022/05/28 06:30:32;;;;;;;;;;;;;;;10.63;100.00;100639.38;5047718;28;19928;-80
2022/05/28 06:33:06;;;;;;;;;;;;;;;10.75;100.00;100639.84;5048862;28;19929;-80
2022/05/28 06:35:39;;;;;;;;;;;;;;;10.68;100.00;100640.16;5050639;28;19928;-82
2022/05/28 06:38:07;;;;;;;;;;;;;;;10.85;100.00;100638.97;5056910;28;19932;-83
2022/05/28 06:40:35;;;;;;;;;;;;;;;10.80;100.00;100639.81;5042771;28;19936;-81
2022/05/28 06:43:08;;;;;;;;;;;;;;;10.76;100.00;100636.03;5025394;28;19924;-81
2022/05/28 06:45:37;;;;;;;;;;;;;;;10.85;100.00;100638.97;5044854;28;19929;-83
2022/05/28 06:48:06;;;;;;;;;;;;;;;10.87;100.00;100637.59;5046112;28;19951;-80
2022/05/28 06:53:24;;;;;;;;;;;;;;;10.89;100.00;100645.47;5046011;28;19928;-81
2022/05/28 06:55:57;;;;;;;;;;;;;;;10.70;100.00;100640.69;5027167;28;19920;-81
2022/05/28 06:58:30;;;;;;;;;;;;;;;10.64;100.00;100652.69;5029476;28;19929;-80
2022/05/28 07:01:00;;;;;;;;;;;;;;;10.63;100.00;100656.50;5062854;28;19920;-82
2022/05/28 07:03:48;;;;;;;;;;;;;;;10.44;100.00;100647.34;5030923;28;19932;-82
2022/05/28 07:06:23;;;;;;;;;;;;;;;10.77;100.00;100654.00;5044552;28;19928;-80
2022/05/28 07:08:51;;;;;;;;;;;;;;;10.70;100.00;100648.03;5044610;28;20344;-82
2022/05/28 07:11:25;;;;;;;;;;;;;;;11.03;100.00;100637.47;5043489;28;19925;-80
2022/05/28 07:13:53;;;;;;;;;;;;;;;11.15;100.00;100635.19;5022309;28;19921;-81
2022/05/28 07:16:27;;;;;;;;;;;;;;;11.28;100.00;100639.16;5024436;28;20369;-81
2022/05/28 07:19:07;;;;;;;;;;;;;;;11.17;100.00;100641.19;5040148;28;19925;-80
2022/05/28 07:21:40;;;;;;;;;;;;;;;10.88;100.00;100644.66;5028045;28;19931;-79
2022/05/28 07:24:13;;;;;;;;;;;;;;;11.11;100.00;100649.69;5025859;28;20372;-82
2022/05/28 07:26:50;;;;;;;;;;;;;;;11.11;100.00;100661.38;5037382;28;20377;-81
2022/05/28 07:29:18;;;;;;;;;;;;;;;11.36;100.00;100645.94;5037656;28;19925;-83
2022/05/28 07:31:52;;;;;;;;;;;;;;;11.75;100.00;100650.44;5044773;28;20372;-84
2022/05/28 07:34:25;;;;;;;;;;;;;;;11.76;100.00;100656.75;5027100;28;20197;-85
2022/05/28 07:36:58;;;;;;;;;;;;;;;11.82;100.00;100645.50;5033490;28;19925;-83
2022/05/28 07:39:31;;;;;;;;;;;;;;;11.78;100.00;100651.78;5051450;28;19925;-84
2022/05/28 07:42:11;;;;;;;;;;;;;;;11.56;100.00;100650.38;5064538;28;20428;-80
2022/05/28 07:44:44;;;;;;;;;;;;;;;11.50;100.00;100660.53;5048017;28;19935;-81
2022/05/28 07:47:19;;;;;;;;;;;;;;;11.05;100.00;100660.59;5028428;28;19935;-81
2022/05/28 07:49:47;;;;;;;;;;;;;;;10.87;100.00;100662.09;5027709;28;19931;-83
2022/05/28 07:52:20;;;;;;;;;;;;;;;10.82;100.00;100664.84;5044483;28;19925;-85
2022/05/28 07:55:00;;;;;;;;;;;;;;;10.80;100.00;100669.75;5038503;28;19924;-84
2022/05/28 07:57:38;;;;;;;;;;;;;;;11.35;100.00;100671.53;5048935;28;20301;-83
2022/05/28 08:00:12;;;;;;;;;;;;;;;11.49;100.00;100663.50;5046860;28;19925;-80
2022/05/28 08:02:46;;;;;;;;;;;;;;;11.45;100.00;100660.56;5048833;28;19921;-81
2022/05/28 08:05:19;;;;;;;;;;;;;;;11.54;100.00;100661.56;5046891;28;19921;-85
2022/05/28 08:07:52;;;;;;;;;;;;;;;11.67;100.00;100664.72;5048279;28;19928;-86
2022/05/28 08:10:25;;;;;;;;;;;;;;;12.01;100.00;100661.94;5049327;28;19924;-84
2022/05/28 08:13:00;;;;;;;;;;;;;;;12.12;100.00;100650.91;5050222;28;19925;-82
2022/05/28 08:15:28;;;;;;;;;;;;;;;12.40;100.00;100660.09;5015724;28;19936;-84
2022/05/28 08:18:02;;;;;;;;;;;;;;;12.69;100.00;100659.19;5038699;28;19927;-82
2022/05/28 08:23:22;;;;;;;;;;;;;;;12.61;100.00;100651.66;5030883;28;20562;-85
2022/05/28 08:25:50;;;;;;;;;;;;;;;12.66;100.00;100646.94;5030157;28;19927;-85
2022/05/28 08:28:23;;;;;;;;;;;;;;;12.85;100.00;100665.25;5033352;28;19929;-81
2022/05/28 08:30:51;;;;;;;;;;;;;;;12.86;100.00;100661.41;5031274;28;19928;-81
2022/05/28 08:33:26;;;;;;;;;;;;;;;12.73;100.00;100658.31;5031714;28;19928;-82
2022/05/28 08:35:59;;;;;;;;;;;;;;;12.86;100.00;100662.22;5036194;28;19924;-84
2022/05/28 08:38:32;;;;;;;;;;;;;;;12.79;100.00;100660.94;5032002;28;19943;-85
2022/05/28 08:41:08;;;;;;;;;;;;;;;12.83;100.00;100657.34;5049907;28;19931;-82
2022/05/28 08:43:45;;;;;;;;;;;;;;;13.09;100.00;100670.63;5052632;28;19921;-83
2022/05/28 08:46:18;;;;;;;;;;;;;;;13.31;100.00;100672.72;5048351;28;19921;-84
2022/05/28 08:48:54;;;;;;;;;;;;;;;13.27;100.00;100678.00;5050841;28;19924;-83
2022/05/28 08:51:33;;;;;;;;;;;;;;;12.91;100.00;100683.19;5048828;28;19928;-83
2022/05/28 08:54:08;;;;;;;;;;;;;;;12.25;100.00;100685.69;5034852;28;20494;-83
2022/05/28 08:56:38;;;;;;;;;;;;;;;11.82;100.00;100708.22;5067724;28;20544;-82
2022/05/28 08:59:08;;;;;;;;;;;;;;;11.66;100.00;100714.91;5069131;28;20369;-84
2022/05/28 09:01:37;;;;;;;;;;;;;;;11.59;100.00;100704.31;5044887;28;19931;-82
2022/05/28 09:04:14;;;;;;;;;;;;;;;11.47;100.00;100707.41;5052985;28;19921;-80
2022/05/28 09:06:51;;;;;;;;;;;;;;;11.56;100.00;100694.81;5048286;28;19925;-87
2022/05/28 09:09:19;;;;;;;;;;;;;;;11.74;100.00;100703.38;5067021;28;19920;-88
2022/05/28 09:11:54;;;;;;;;;;;;;;;12.10;100.00;100704.94;5061845;28;19925;-84
2022/05/28 09:14:33;;;;;;;;;;;;;;;12.35;100.00;100707.38;5031323;28;19929;-84
2022/05/28 09:17:08;;;;;;;;;;;;;;;12.58;100.00;100708.47;5037086;28;19921;-83
2022/05/28 09:19:44;;;;;;;;;;;;;;;12.76;100.00;100703.34;5030731;28;19924;-82
2022/05/28 09:22:18;;;;;;;;;;;;;;;13.07;100.00;100708.38;5049432;28;20321;-85
2022/05/28 09:24:51;;;;;;;;;;;;;;;12.73;100.00;100704.75;5048225;28;19928;-85
2022/05/28 09:27:25;;;;;;;;;;;;;;;12.33;100.00;100708.78;5043463;28;20365;-83
2022/05/28 09:30:11;;;;;;;;;;;;;;;12.07;100.00;100717.25;5061289;28;19921;-85
2022/05/28 09:33:01;;;;;;;;;;;;;;;11.82;100.00;100710.09;5023877;28;19921;-82
2022/05/28 09:35:40;;;;;;;;;;;;;;;12.01;100.00;100711.03;5038499;28;20547;-84
2022/05/28 09:38:17;;;;;;;;;;;;;;;12.33;100.00;100717.81;5046974;28;20885;-84
2022/05/28 09:40:51;;;;;;;;;;;;;;;12.66;100.00;100707.00;5029006;28;19925;-81
2022/05/28 09:43:36;;;;;;;;;;;;;;;12.71;100.00;100709.66;5048601;28;19932;-83
2022/05/28 09:46:13;;;;;;;;;;;;;;;12.82;100.00;100698.63;5049366;28;19943;-82
2022/05/28 09:48:42;;;;;;;;;;;;;;;12.91;100.00;100702.28;5063274;28;20288;-82
2022/05/28 09:51:22;;;;;;;;;;;;;;;12.71;100.00;100704.19;5046269;28;19924;-83
2022/05/28 09:56:52;;;;;;;;;;;;;;;11.83;100.00;100717.19;5028423;28;19925;-83
2022/05/28 09:59:26;;;;;;;;;;;;;;;11.48;100.00;100730.03;5048588;28;19921;-84
2022/05/28 10:02:04;;;;;;;;;;;;;;;11.12;100.00;100722.94;5046544;28;19921;-83
2022/05/28 10:04:44;;;;;;;;;;;;;;;11.12;100.00;100727.56;5046188;28;20421;-84
2022/05/28 10:07:13;;;;;;;;;;;;;;;11.20;100.00;100735.94;5043304;28;20300;-85
2022/05/28 10:09:50;;;;;;;;;;;;;;;11.39;100.00;100730.66;5066557;28;19931;-84
2022/05/28 10:12:25;;;;;;;;;;;;;;;11.99;100.00;100729.59;5031559;28;19921;-88
2022/05/28 10:14:59;;;;;;;;;;;;;;;11.71;100.00;100726.56;5044549;28;20835;-83
2022/05/28 10:17:28;;;;;;;;;;;;;;;11.42;100.00;100733.88;5046156;28;19928;-83
2022/05/28 10:20:01;;;;;;;;;;;;;;;11.37;100.00;100730.09;5026706;28;19925;-82
2022/05/28 10:22:38;;;;;;;;;;;;;;;11.38;100.00;100739.09;5035672;28;19924;-84
2022/05/28 10:25:24;;;;;;;;;;;;;;;11.33;100.00;100739.94;5036797;28;19925;-84
2022/05/28 10:27:53;;;;;;;;;;;;;;;11.29;100.00;100730.69;5061010;28;19921;-82
2022/05/28 10:30:31;;;;;;;;;;;;;;;11.35;100.00;100739.66;5027671;28;19925;-83
2022/05/28 10:33:02;;;;;;;;;;;;;;;11.53;100.00;100749.06;5047812;28;20046;-84
2022/05/28 10:35:35;;;;;;;;;;;;;;;11.59;100.00;100734.31;5025965;28;19925;-83
2022/05/28 10:38:14;;;;;;;;;;;;;;;12.00;100.00;100742.16;5030952;28;19929;-80
2022/05/28 10:40:49;;;;;;;;;;;;;;;12.32;100.00;100743.44;5026582;28;20006;-84
2022/05/28 10:43:26;;;;;;;;;;;;;;;12.59;100.00;100726.50;5064639;28;19927;-80
2022/05/28 10:46:05;;;;;;;;;;;;;;;12.48;100.00;100722.25;5024042;28;19936;-83
2022/05/28 10:48:49;;;;;;;;;;;;;;;12.56;100.00;100726.25;5059117;28;19929;-83
2022/05/28 10:51:29;;;;;;;;;;;;;;;12.15;100.00;100734.91;5040342;28;19925;-83
2022/05/28 10:54:12;;;;;;;;;;;;;;;11.80;100.00;100740.38;5025270;28;19940;-81
2022/05/28 10:56:54;;;;;;;;;;;;;;;11.73;100.00;100739.91;5036093;28;19932;-81
2022/05/28 10:59:31;;;;;;;;;;;;;;;11.68;100.00;100742.66;5041030;28;19924;-83
2022/05/28 11:02:08;;;;;;;;;;;;;;;11.95;100.00;100744.91;5029655;28;19932;-82
2022/05/28 11:04:49;;;;;;;;;;;;;;;12.04;100.00;100737.75;5022627;28;20286;-82
2022/05/28 11:07:40;;;;;;;;;;;;;;;12.25;100.00;100743.78;5043443;28;19971;-81
2022/05/28 11:10:19;;;;;;;;;;;;;;;12.26;100.00;100733.69;5029771;28;19925;-81
2022/05/28 11:13:03;;;;;;;;;;;;;;;12.50;100.00;100739.16;5047609;28;19936;-80
2022/05/28 11:15:41;;;;;;;;;;;;;;;12.21;100.00;100731.03;5046684;28;20373;-81
2022/05/28 11:18:17;;;;;;;;;;;;;;;12.10;100.00;100751.31;5046986;28;19935;-81
2022/05/28 11:20:49;;;;;;;;;;;;;;;12.39;100.00;100732.19;5043833;28;19925;-84
2022/05/28 11:23:35;;;;;;;;;;;;;;;13.37;100.00;100728.19;5032644;28;19925;-82
2022/05/28 11:26:17;;;;;;;;;;;;;;;14.12;100.00;100734.53;5042076;28;19924;-82
2022/05/28 11:29:05;;;;;;;;;;;;;;;13.44;100.00;100726.66;5048597;28;20324;-81
2022/05/28 11:31:42;;;;;;;;;;;;;;;13.15;100.00;100728.75;5025127;28;19928;-82
2022/05/28 11:34:12;;;;;;;;;;;;;;;13.24;100.00;100733.25;5045792;28;19935;-82
2022/05/28 11:36:47;;;;;;;;;;;;;;;13.00;100.00;100741.50;5025760;28;19924;-85
2022/05/28 11:39:23;;;;;;;;;;;;;;;12.62;100.00;100746.91;5030091;28;19960;-81
2022/05/28 11:41:53;;;;;;;;;;;;;;;12.62;100.00;100757.03;5049025;28;19932;-81
2022/05/28 11:44:29;;;;;;;;;;;;;;;12.40;100.00;100758.34;5056768;28;19921;-79
2022/05/28 11:46:59;;;;;;;;;;;;;;;12.32;100.00;100765.28;5034131;28;19925;-80
2022/05/28 11:52:23;;;;;;;;;;;;;;;11.88;100.00;100763.50;5059584;28;19933;-83
2022/05/28 11:54:57;;;;;;;;;;;;;;;12.07;100.00;100750.00;5030021;28;19927;-82
2022/05/28 11:57:30;;;;;;;;;;;;;;;12.34;100.00;100757.59;5060851;28;19924;-81
2022/05/28 12:00:07;;;;;;;;;;;;;;;12.25;100.00;100749.25;5033088;28;19925;-80
2022/05/28 12:02:40;;;;;;;;;;;;;;;12.49;100.00;100759.34;5055136;28;19924;-81
2022/05/28 12:05:21;;;;;;;;;;;;;;;12.68;100.00;100745.75;5034383;28;19920;-81
2022/05/28 12:07:56;;;;;;;;;;;;;;;12.73;100.00;100748.44;5032885;28;19935;-82
2022/05/28 12:10:46;;;;;;;;;;;;;;;12.81;100.00;100752.41;5048912;28;20548;-81
2022/05/28 12:13:32;;;;;;;;;;;;;;;12.80;100.00;100742.63;5049696;28;19925;-79
2022/05/28 12:16:05;;;;;;;;;;;;;;;12.75;100.00;100735.28;5031058;28;19921;-81
2022/05/28 12:18:34;;;;;;;;;;;;;;;12.97;100.00;100739.38;5035836;28;19925;-80
2022/05/28 12:21:07;;;;;;;;;;;;;;;13.65;100.00;100734.53;5051615;28;20377;-81
2022/05/28 12:23:41;;;;;;;;;;;;;;;13.43;100.00;100735.16;5050495;28;19925;-79
2022/05/28 12:26:23;;;;;;;;;;;;;;;13.30;100.00;100744.91;5051176;28;19925;-80
2022/05/28 12:28:55;;;;;;;;;;;;;;;12.78;100.00;100750.28;5062009;28;20305;-81
2022/05/28 12:31:28;;;;;;;;;;;;;;;12.70;100.00;100746.25;5052145;28;19928;-80
2022/05/28 12:34:01;;;;;;;;;;;;;;;12.34;100.00;100754.88;5033929;28;19929;-81
2022/05/28 12:36:39;;;;;;;;;;;;;;;12.17;100.00;100760.78;5033104;28;20303;-83
2022/05/28 12:39:28;;;;;;;;;;;;;;;12.03;100.00;100760.66;5033585;28;19928;-85
2022/05/28 12:42:03;;;;;;;;;;;;;;;12.15;100.00;100757.56;5046006;28;19925;-81
2022/05/28 12:44:48;;;;;;;;;;;;;;;12.01;100.00;100753.88;5043975;28;20281;-81
2022/05/28 12:47:24;;;;;;;;;;;;;;;12.02;100.00;100756.31;5031827;28;19940;-81
2022/05/28 12:50:01;;;;;;;;;;;;;;;12.04;100.00;100756.00;5046518;28;19928;-81
2022/05/28 12:52:35;;;;;;;;;;;;;;;12.35;100.00;100763.91;5050597;28;19920;-84
2022/05/28 12:55:20;;;;;;;;;;;;;;;12.33;100.00;100764.19;5043087;28;19931;-81
2022/05/28 12:57:58;;;;;;;;;;;;;;;12.36;100.00;100763.59;5033570;28;19940;-81
2022/05/28 13:00:37;;;;;;;;;;;;;;;12.23;100.00;100758.81;5020405;28;19986;-81
2022/05/28 13:03:06;;;;;;;;;;;;;;;12.27;100.00;100776.25;5028344;28;19936;-82
2022/05/28 13:05:38;;;;;;;;;;;;;;;12.10;100.00;100768.50;5015585;28;19929;-81
2022/05/28 13:08:12;;;;;;;;;;;;;;;12.01;100.00;100772.94;5024224;28;20014;-81
2022/05/28 13:10:46;;;;;;;;;;;;;;;12.03;100.00;100784.41;5023822;28;19936;-81
2022/05/28 13:13:32;;;;;;;;;;;;;;;11.90;100.00;100775.75;5031480;28;19929;-85